createdAt,value
2022-09-22T00:03:39.891Z,0
2022-09-22T00:08:40.105Z,0
2022-09-22T00:13:40.125Z,0
2022-09-22T00:18:40.255Z,0
2022-09-22T00:23:40.395Z,0
2022-09-22T00:28:39.907Z,0
2022-09-22T00:33:40.189Z,0
2022-09-22T00:38:40.277Z,0
2022-09-22T00:43:40.479Z,0
2022-09-22T00:48:40.582Z,0
2022-09-22T00:53:39.752Z,0
2022-09-22T00:58:40.000Z,0
2022-09-22T01:03:39.778Z,0
2022-09-22T01:08:39.984Z,0
2022-09-22T01:13:40.358Z,0
2022-09-22T01:18:40.743Z,0
2022-09-22T01:23:39.904Z,0
2022-09-22T01:28:40.434Z,0
2022-09-22T01:33:39.761Z,0
2022-09-22T01:38:40.578Z,0
2022-09-22T01:43:40.682Z,0
2022-09-22T01:48:39.765Z,0
2022-09-22T01:53:40.060Z,0
2022-09-22T01:58:40.276Z,0
2022-09-22T02:03:40.424Z,0
2022-09-22T02:08:40.596Z,0
2022-09-22T02:13:39.996Z,0
2022-09-22T02:18:40.143Z,0
2022-09-22T02:23:40.360Z,0
2022-09-22T02:28:40.691Z,0
2022-09-22T02:33:40.129Z,0
2022-09-22T02:38:40.308Z,0
2022-09-22T02:43:40.505Z,0
2022-09-22T02:48:40.106Z,0
2022-09-22T02:53:39.954Z,0
2022-09-22T02:58:40.209Z,0
2022-09-22T03:03:39.967Z,0
2022-09-22T03:08:39.966Z,0
2022-09-22T03:13:40.789Z,0
2022-09-22T03:18:40.674Z,0
2022-09-22T03:23:40.467Z,0
2022-09-22T03:28:39.847Z,0
2022-09-22T03:33:40.635Z,0
2022-09-22T03:38:40.268Z,0
2022-09-22T03:43:40.013Z,0
2022-09-22T03:48:45.517Z,0
2022-09-22T03:53:40.733Z,0
2022-09-22T03:58:40.100Z,0
2022-09-22T04:03:40.494Z,0
2022-09-22T04:08:40.927Z,0
2022-09-22T04:13:46.758Z,0
2022-09-22T04:18:40.056Z,0
2022-09-22T04:23:40.760Z,0
2022-09-22T04:28:40.855Z,0
2022-09-22T04:33:40.200Z,0
2022-09-22T04:38:40.762Z,0
2022-09-22T04:43:40.449Z,0
2022-09-22T04:48:40.612Z,0
2022-09-22T04:53:40.105Z,0
2022-09-22T04:58:40.562Z,0
2022-09-22T05:03:41.100Z,0
2022-09-22T05:08:40.652Z,0
2022-09-22T05:13:40.196Z,0
2022-09-22T05:18:40.410Z,0
2022-09-22T05:23:40.642Z,0
2022-09-22T05:28:39.989Z,7
2022-09-22T05:33:40.202Z,7
2022-09-22T05:38:40.363Z,12.2
2022-09-22T05:43:40.789Z,12.2
2022-09-22T05:48:39.957Z,17.3
2022-09-22T05:53:40.329Z,17.3
2022-09-22T05:58:40.760Z,21.3
2022-09-22T06:03:40.853Z,21.3
2022-09-22T06:08:48.435Z,25.8
2022-09-22T06:13:40.222Z,25.8
2022-09-22T06:18:40.417Z,61.6
2022-09-22T06:23:43.179Z,61.6
2022-09-22T06:28:40.302Z,101.5
2022-09-22T06:33:40.357Z,101.5
2022-09-22T06:38:40.395Z,124.8
2022-09-22T06:43:40.657Z,124.8
2022-09-22T06:48:40.746Z,152.2
2022-09-22T06:53:40.489Z,152.2
2022-09-22T06:59:10.518Z,175.5
2022-09-22T07:03:40.421Z,175.5
2022-09-22T07:08:40.740Z,202.5
2022-09-22T07:13:40.099Z,202.5
2022-09-22T07:18:40.273Z,227.2
2022-09-22T07:23:40.640Z,227.2
2022-09-22T07:28:40.031Z,255
2022-09-22T07:33:40.241Z,255
2022-09-22T07:38:40.378Z,277.5
2022-09-22T07:43:40.732Z,277.5
2022-09-22T07:48:40.252Z,299.8
2022-09-22T07:53:40.465Z,299.8
2022-09-22T07:58:40.715Z,321.2
2022-09-22T08:03:40.882Z,321.2
2022-09-22T08:08:41.098Z,343.2
2022-09-22T08:13:40.489Z,343.2
2022-09-22T08:18:40.719Z,366.5
2022-09-22T08:23:41.004Z,366.5
2022-09-22T08:28:40.062Z,385.6
2022-09-22T08:33:40.248Z,385.6
2022-09-22T08:38:40.757Z,405.3
2022-09-22T08:43:40.043Z,405.3
2022-09-22T08:48:40.409Z,424.2
2022-09-22T08:53:41.054Z,424.2
2022-09-22T08:58:40.173Z,440
2022-09-22T09:03:40.835Z,440
2022-09-22T09:08:40.710Z,458.6
2022-09-22T09:13:41.065Z,458.6
2022-09-22T09:18:40.451Z,473.7
2022-09-22T09:28:40.848Z,489.5
2022-09-22T09:33:40.321Z,489.5
2022-09-22T09:38:40.589Z,502.6
2022-09-22T09:43:40.311Z,502.6
2022-09-22T09:48:40.827Z,513
2022-09-22T09:53:41.701Z,513
2022-09-22T09:58:40.744Z,524.5
2022-09-22T10:03:40.341Z,524.5
2022-09-22T10:08:40.871Z,532.4
2022-09-22T10:13:40.138Z,532.4
2022-09-22T10:18:40.959Z,538.7
2022-09-22T10:23:40.124Z,538.7
2022-09-22T10:28:40.412Z,550.7
2022-09-22T10:33:44.112Z,550.7
2022-09-22T10:43:40.510Z,557.2
2022-09-22T10:48:40.639Z,561.4
2022-09-22T10:53:40.978Z,561.4
2022-09-22T10:58:40.142Z,571.7
2022-09-22T11:03:40.522Z,571.7
2022-09-22T11:08:40.813Z,584.8
2022-09-22T11:13:40.923Z,584.8
2022-09-22T11:18:41.080Z,239.4
2022-09-22T11:23:40.248Z,239.4
2022-09-22T11:28:40.392Z,627.7
2022-09-22T11:33:40.688Z,627.7
2022-09-22T11:38:41.080Z,112
2022-09-22T11:43:40.294Z,112
2022-09-22T11:48:40.698Z,133.6
2022-09-22T11:53:40.177Z,133.6
2022-09-22T11:58:40.404Z,108
2022-09-22T12:03:40.928Z,108
2022-09-22T12:08:40.231Z,106.7
2022-09-22T12:13:40.450Z,106.7
2022-09-22T12:18:40.747Z,87.5
2022-09-22T12:23:40.896Z,87.5
2022-09-22T12:28:41.076Z,72.8
2022-09-22T12:33:40.269Z,72.8
2022-09-22T12:38:40.571Z,131.3
2022-09-22T12:43:40.804Z,131.3
2022-09-22T12:48:40.992Z,112.2
2022-09-22T12:53:44.155Z,112.2
2022-09-22T12:58:40.479Z,158
2022-09-22T13:03:41.004Z,158
2022-09-22T13:08:41.376Z,123.3
2022-09-22T13:13:40.457Z,123.3
2022-09-22T13:18:40.668Z,105.2
2022-09-22T13:23:40.915Z,105.2
2022-09-22T13:28:41.059Z,129
2022-09-22T13:33:40.263Z,129
2022-09-22T13:38:40.449Z,151.8
2022-09-22T13:43:40.655Z,151.8
2022-09-22T13:48:41.006Z,160.8
2022-09-22T13:53:40.692Z,160.8
2022-09-22T13:58:41.050Z,106.5
2022-09-22T14:03:40.308Z,106.5
2022-09-22T14:08:40.629Z,122.4
2022-09-22T14:13:40.910Z,122.4
2022-09-22T14:18:40.951Z,115.6
2022-09-22T14:23:41.144Z,115.6
2022-09-22T14:28:41.160Z,280.4
2022-09-22T14:33:40.377Z,280.4
2022-09-22T14:39:03.494Z,92.4
2022-09-22T14:43:40.434Z,92.4
2022-09-22T14:48:41.237Z,74.2
2022-09-22T14:53:40.680Z,74.2
2022-09-22T14:58:41.117Z,68.7
2022-09-22T15:03:40.658Z,68.7
2022-09-22T15:08:40.660Z,89.8
2022-09-22T15:13:40.079Z,89.8
2022-09-22T15:18:40.744Z,70.6
2022-09-22T15:23:40.591Z,70.6
2022-09-22T15:28:40.647Z,47.3
2022-09-22T15:33:40.617Z,47.3
2022-09-22T15:38:40.696Z,46
2022-09-22T15:43:40.407Z,46
2022-09-22T15:48:41.238Z,47.3
2022-09-22T15:53:40.701Z,47.3
2022-09-22T15:58:40.471Z,29.6
2022-09-22T16:03:41.705Z,29.6
2022-09-22T16:08:41.131Z,25.4
2022-09-22T16:13:41.140Z,25.4
2022-09-22T16:18:40.425Z,26.4
2022-09-22T16:23:40.772Z,26.4
2022-09-22T16:28:41.030Z,26.8
2022-09-22T16:33:41.046Z,26.8
2022-09-22T16:38:41.287Z,19.5
2022-09-22T16:43:40.640Z,19.5
2022-09-22T16:48:41.781Z,13.6
2022-09-22T16:53:40.397Z,13.6
2022-09-22T16:58:40.568Z,13.6
2022-09-22T17:03:40.668Z,13.6
2022-09-22T17:08:40.489Z,14.8
2022-09-22T17:13:40.835Z,14.8
2022-09-22T17:18:41.022Z,2
2022-09-22T17:23:41.037Z,2
2022-09-22T17:28:41.369Z,0
2022-09-22T17:33:40.613Z,0
2022-09-22T17:38:40.894Z,0
2022-09-22T17:43:41.005Z,0
2022-09-22T17:48:41.100Z,0
2022-09-22T17:53:41.400Z,0
2022-09-22T17:58:40.757Z,0
2022-09-22T18:03:40.793Z,0
2022-09-22T18:08:40.870Z,0
2022-09-22T18:13:57.336Z,0
2022-09-22T18:18:40.526Z,0
2022-09-22T18:23:40.749Z,0
2022-09-22T18:28:41.149Z,0
2022-09-22T18:33:41.265Z,0
2022-09-22T18:38:40.490Z,0
2022-09-22T18:43:40.631Z,0
2022-09-22T18:48:40.636Z,0
2022-09-22T18:53:40.886Z,0
2022-09-22T18:58:40.949Z,0
2022-09-22T19:03:41.044Z,0
2022-09-22T19:08:41.159Z,0
2022-09-22T19:13:41.223Z,0
2022-09-22T19:18:41.275Z,0
2022-09-22T19:23:40.339Z,0
2022-09-22T19:28:40.395Z,0
2022-09-22T19:33:40.486Z,0
2022-09-22T19:38:40.655Z,0
2022-09-22T19:43:40.745Z,0
2022-09-22T19:48:41.200Z,0
2022-09-22T19:53:40.517Z,0
2022-09-22T19:58:40.652Z,0
2022-09-22T20:03:40.778Z,0
2022-09-22T20:08:40.885Z,0
2022-09-22T20:13:41.097Z,0
2022-09-22T20:18:41.642Z,0
2022-09-22T20:23:40.751Z,0
2022-09-22T20:28:40.897Z,0
2022-09-22T20:33:41.067Z,0
2022-09-22T20:38:41.370Z,0
2022-09-22T20:43:40.470Z,0
2022-09-22T20:48:40.573Z,0
2022-09-22T20:53:41.118Z,0
2022-09-22T20:58:40.931Z,0
2022-09-22T21:03:41.100Z,0
2022-09-22T21:08:41.305Z,0
2022-09-22T21:13:40.380Z,0
2022-09-22T21:18:40.648Z,0
2022-09-22T21:23:40.759Z,0
2022-09-22T21:28:41.083Z,0
2022-09-22T21:33:41.341Z,0
2022-09-22T21:38:40.673Z,0
2022-09-22T21:43:40.819Z,0
2022-09-22T21:48:41.066Z,0
2022-09-22T21:53:41.405Z,0
2022-09-22T21:58:40.560Z,0
2022-09-22T22:03:41.142Z,0
2022-09-22T22:08:41.332Z,0
2022-09-22T22:13:40.661Z,0
2022-09-22T22:18:40.935Z,0
2022-09-22T22:23:41.549Z,0
2022-09-22T22:28:40.815Z,0
2022-09-22T22:33:40.909Z,0
2022-09-22T22:38:41.127Z,0
2022-09-22T22:43:41.245Z,0
2022-09-22T22:48:40.997Z,0
2022-09-22T22:53:41.147Z,0
2022-09-22T22:58:41.346Z,0
2022-09-22T23:03:40.972Z,0
2022-09-22T23:08:40.901Z,0
2022-09-22T23:13:41.094Z,0
2022-09-22T23:18:41.083Z,0
2022-09-22T23:23:41.294Z,0
2022-09-22T23:28:41.337Z,0
2022-09-22T23:33:41.333Z,0
2022-09-22T23:38:40.543Z,0
2022-09-22T23:43:40.688Z,0
2022-09-22T23:48:41.077Z,0
2022-09-22T23:53:41.061Z,0
2022-09-22T23:58:41.212Z,0
